createdAt,value
2018-08-27T00:02:10.071Z,9.67
2018-08-27T00:04:40.068Z,9.93
2018-08-27T00:07:09.296Z,9.87
2018-08-27T00:09:39.199Z,9.67
2018-08-27T00:12:09.162Z,9.23
2018-08-27T00:14:38.875Z,9.83
2018-08-27T00:17:07.735Z,10.00
2018-08-27T00:19:37.881Z,9.00
2018-08-27T00:22:08.521Z,9.47
2018-08-27T00:24:37.569Z,9.40
2018-08-27T00:27:07.518Z,9.37
2018-08-27T00:29:37.072Z,9.60
2018-08-27T00:32:05.847Z,9.33
2018-08-27T00:34:34.956Z,9.90
2018-08-27T00:37:03.934Z,9.90
2018-08-27T00:39:33.328Z,9.53
2018-08-27T00:42:03.792Z,9.30
2018-08-27T00:44:32.865Z,9.37
2018-08-27T00:47:03.112Z,9.67
2018-08-27T00:49:32.610Z,9.50
2018-08-27T00:52:01.688Z,9.60
2018-08-27T00:54:31.487Z,9.20
2018-08-27T00:57:00.754Z,9.70
2018-08-27T00:59:29.722Z,9.10
2018-08-27T01:02:00.149Z,9.63
2018-08-27T01:04:30.614Z,9.33
2018-08-27T01:07:00.075Z,8.90
2018-08-27T01:09:30.157Z,9.53
2018-08-27T01:12:00.304Z,9.30
2018-08-27T01:14:29.390Z,9.50
2018-08-27T01:16:58.164Z,9.90
2018-08-27T01:19:28.724Z,9.10
2018-08-27T01:21:58.698Z,9.67
2018-08-27T01:24:28.124Z,8.90
2018-08-27T01:26:57.400Z,9.13
2018-08-27T01:29:27.237Z,10.20
2018-08-27T01:32:02.013Z,9.03
2018-08-27T01:34:31.531Z,8.90
2018-08-27T01:37:02.591Z,9.20
2018-08-27T01:39:32.842Z,9.10
2018-08-27T01:42:01.987Z,9.30
2018-08-27T01:44:32.605Z,9.30
2018-08-27T01:47:01.805Z,9.20
2018-08-27T01:49:31.227Z,8.90
2018-08-27T01:52:01.967Z,8.97
2018-08-27T01:54:32.218Z,9.03
2018-08-27T01:57:01.329Z,8.67
2018-08-27T01:59:30.220Z,8.73
2018-08-27T02:01:59.425Z,9.03
2018-08-27T02:04:30.007Z,9.67
2018-08-27T02:07:00.073Z,9.00
2018-08-27T02:09:29.779Z,8.90
2018-08-27T02:11:59.187Z,9.17
2018-08-27T02:14:29.578Z,8.80
2018-08-27T02:16:59.781Z,8.70
2018-08-27T02:19:29.783Z,9.27
2018-08-27T02:21:59.196Z,9.03
2018-08-27T02:24:28.192Z,8.87
2018-08-27T02:26:58.029Z,8.80
2018-08-27T02:29:27.688Z,9.10
2018-08-27T02:31:56.885Z,8.80
2018-08-27T02:34:26.108Z,8.70
2018-08-27T02:36:55.866Z,8.27
2018-08-27T02:39:25.296Z,9.27
2018-08-27T02:41:54.464Z,9.10
2018-08-27T02:44:23.484Z,8.90
2018-08-27T02:46:54.177Z,8.80
2018-08-27T02:49:23.443Z,8.60
2018-08-27T02:51:53.938Z,9.07
2018-08-27T02:54:22.849Z,8.83
2018-08-27T02:56:53.116Z,8.50
2018-08-27T02:59:22.712Z,8.60
2018-08-27T03:01:52.417Z,8.60
2018-08-27T03:04:21.451Z,8.17
2018-08-27T03:06:51.319Z,8.90
2018-08-27T03:09:20.324Z,8.87
2018-08-27T03:11:50.189Z,8.60
2018-08-27T03:14:19.620Z,10.03
2018-08-27T03:16:50.157Z,8.73
2018-08-27T03:19:20.177Z,8.80
2018-08-27T03:21:50.946Z,8.47
2018-08-27T03:24:21.753Z,8.70
2018-08-27T03:26:52.461Z,8.90
2018-08-27T03:29:21.918Z,8.40
2018-08-27T03:31:51.265Z,8.80
2018-08-27T03:34:20.159Z,8.27
2018-08-27T03:36:48.967Z,8.60
2018-08-27T03:39:19.223Z,8.50
2018-08-27T03:41:49.032Z,9.20
2018-08-27T03:44:17.941Z,9.00
2018-08-27T03:46:47.251Z,8.77
2018-08-27T03:49:16.604Z,8.33
2018-08-27T03:51:47.431Z,8.77
2018-08-27T03:54:16.735Z,10.00
2018-08-27T03:56:46.688Z,8.40
2018-08-27T03:59:16.405Z,8.10
2018-08-27T04:01:47.611Z,8.90
2018-08-27T04:04:16.703Z,8.63
2018-08-27T04:06:46.737Z,8.63
2018-08-27T04:09:16.689Z,8.50
2018-08-27T04:11:47.542Z,9.10
2018-08-27T04:14:17.656Z,8.20
2018-08-27T04:16:46.528Z,8.63
2018-08-27T04:19:16.515Z,8.37
2018-08-27T04:21:47.132Z,8.47
2018-08-27T04:24:16.396Z,8.30
2018-08-27T04:26:46.268Z,8.40
2018-08-27T04:29:15.664Z,8.70
2018-08-27T04:31:44.760Z,8.77
2018-08-27T04:34:14.542Z,9.00
2018-08-27T04:36:44.005Z,8.77
2018-08-27T04:39:12.842Z,8.83
2018-08-27T04:41:42.268Z,8.90
2018-08-27T04:44:11.469Z,8.10
2018-08-27T04:46:40.605Z,8.80
2018-08-27T04:49:10.100Z,9.60
2018-08-27T04:51:39.446Z,8.80
2018-08-27T04:54:08.868Z,8.40
2018-08-27T04:56:38.798Z,8.30
2018-08-27T04:59:16.496Z,8.70
2018-08-27T05:01:45.454Z,8.47
2018-08-27T05:04:16.002Z,8.70
2018-08-27T05:06:45.759Z,8.30
2018-08-27T05:09:15.028Z,8.93
2018-08-27T05:11:44.930Z,8.07
2018-08-27T05:14:15.680Z,8.30
2018-08-27T05:16:45.378Z,8.67
2018-08-27T05:19:14.335Z,8.63
2018-08-27T05:24:21.465Z,8.37
2018-08-27T05:26:51.356Z,8.00
2018-08-27T05:29:22.224Z,9.13
2018-08-27T05:31:52.776Z,8.70
2018-08-27T05:34:22.161Z,8.50
2018-08-27T05:36:51.545Z,9.20
2018-08-27T05:39:22.504Z,9.60
2018-08-27T05:41:51.815Z,8.70
2018-08-27T05:44:22.158Z,8.60
2018-08-27T05:46:51.574Z,8.40
2018-08-27T05:49:21.984Z,8.27
2018-08-27T05:51:53.229Z,8.90
2018-08-27T05:57:01.393Z,9.67
2018-08-27T05:59:32.722Z,8.67
2018-08-27T06:02:02.235Z,8.93
2018-08-27T06:04:31.672Z,8.83
2018-08-27T06:07:01.737Z,8.50
2018-08-27T06:09:31.610Z,9.10
2018-08-27T06:12:00.951Z,8.30
2018-08-27T06:14:31.410Z,8.83
2018-08-27T06:17:00.842Z,8.87
2018-08-27T06:19:29.862Z,8.73
2018-08-27T06:21:59.848Z,8.30
2018-08-27T06:24:28.636Z,8.60
2018-08-27T06:26:59.089Z,8.57
2018-08-27T06:29:28.100Z,8.70
2018-08-27T06:31:59.489Z,8.27
2018-08-27T06:34:28.753Z,8.70
2018-08-27T06:36:58.526Z,8.40
2018-08-27T06:39:28.096Z,8.30
2018-08-27T06:41:58.237Z,8.30
2018-08-27T06:44:28.713Z,8.87
2018-08-27T06:46:58.236Z,8.63
2018-08-27T06:49:27.148Z,8.70
2018-08-27T06:51:56.461Z,8.83
2018-08-27T06:54:26.396Z,8.80
2018-08-27T06:56:55.267Z,9.10
2018-08-27T06:59:24.869Z,8.30
2018-08-27T07:01:54.209Z,9.00
2018-08-27T07:04:23.352Z,8.90
2018-08-27T07:06:52.845Z,8.83
2018-08-27T07:09:23.071Z,8.60
2018-08-27T07:11:52.529Z,8.33
2018-08-27T07:14:21.281Z,8.30
2018-08-27T07:16:50.225Z,8.97
2018-08-27T07:19:19.960Z,8.50
2018-08-27T07:21:49.714Z,8.87
2018-08-27T07:24:19.104Z,8.80
2018-08-27T07:26:49.399Z,8.30
2018-08-27T07:29:19.639Z,8.00
2018-08-27T07:31:48.556Z,8.80
2018-08-27T07:34:19.636Z,8.10
2018-08-27T07:36:49.348Z,8.90
2018-08-27T07:39:18.806Z,8.70
2018-08-27T07:41:47.649Z,8.30
2018-08-27T07:44:17.829Z,8.13
2018-08-27T07:46:47.271Z,8.70
2018-08-27T07:49:16.192Z,8.60
2018-08-27T07:51:46.335Z,8.10
2018-08-27T07:54:15.121Z,8.70
2018-08-27T07:56:44.790Z,8.83
2018-08-27T07:59:13.893Z,8.30
2018-08-27T08:01:43.407Z,8.33
2018-08-27T08:04:13.404Z,8.57
2018-08-27T08:06:43.014Z,8.77
2018-08-27T08:09:12.698Z,8.60
2018-08-27T08:11:43.014Z,8.50
2018-08-27T08:14:13.228Z,8.70
2018-08-27T08:16:42.576Z,8.20
2018-08-27T08:19:11.575Z,8.60
2018-08-27T08:21:40.893Z,8.70
2018-08-27T08:24:10.412Z,8.20
2018-08-27T08:26:40.753Z,8.17
2018-08-27T08:29:10.167Z,8.33
2018-08-27T08:31:39.583Z,8.30
2018-08-27T08:34:08.767Z,8.33
2018-08-27T08:36:38.532Z,8.47
2018-08-27T08:39:07.827Z,8.70
2018-08-27T08:41:37.390Z,8.70
2018-08-27T08:44:06.638Z,9.23
2018-08-27T08:46:36.001Z,8.10
2018-08-27T08:49:05.254Z,8.50
2018-08-27T08:51:35.437Z,8.50
2018-08-27T08:54:05.032Z,8.23
2018-08-27T08:56:34.317Z,8.40
2018-08-27T08:59:04.427Z,8.40
2018-08-27T09:01:36.033Z,8.50
2018-08-27T09:04:06.049Z,8.40
2018-08-27T09:06:35.836Z,9.20
2018-08-27T09:09:07.686Z,7.80
2018-08-27T09:11:36.629Z,8.70
2018-08-27T09:14:06.666Z,8.30
2018-08-27T09:16:36.348Z,8.53
2018-08-27T09:19:08.785Z,8.57
2018-08-27T09:21:38.109Z,8.50
2018-08-27T09:24:08.198Z,8.80
2018-08-27T09:26:37.433Z,10.40
2018-08-27T09:29:07.153Z,8.47
2018-08-27T09:31:36.389Z,9.07
2018-08-27T09:34:06.625Z,8.10
2018-08-27T09:36:37.615Z,8.80
2018-08-27T09:39:09.281Z,8.70
2018-08-27T09:41:39.465Z,9.43
2018-08-27T09:44:08.806Z,9.20
2018-08-27T09:46:38.314Z,9.70
2018-08-27T09:49:07.773Z,9.17
2018-08-27T09:51:36.967Z,9.07
2018-08-27T09:54:07.793Z,8.63
2018-08-27T09:56:38.087Z,9.93
2018-08-27T09:59:09.368Z,8.90
2018-08-27T10:01:39.759Z,9.00
2018-08-27T10:04:08.906Z,8.63
2018-08-27T10:06:38.357Z,8.80
2018-08-27T10:09:08.574Z,8.83
2018-08-27T10:11:37.726Z,8.87
2018-08-27T10:14:07.108Z,8.50
2018-08-27T10:16:37.144Z,9.23
2018-08-27T10:19:06.213Z,8.80
2018-08-27T10:21:36.465Z,9.17
2018-08-27T10:24:05.827Z,8.30
2018-08-27T10:26:35.992Z,8.70
2018-08-27T10:29:06.617Z,9.40
2018-08-27T10:31:36.162Z,9.67
2018-08-27T10:34:06.479Z,8.90
2018-08-27T10:36:35.166Z,9.10
2018-08-27T10:39:04.472Z,9.50
2018-08-27T10:41:34.332Z,9.10
2018-08-27T10:44:04.862Z,8.90
2018-08-27T10:46:35.877Z,9.53
2018-08-27T10:49:05.440Z,9.40
2018-08-27T10:51:35.272Z,9.80
2018-08-27T10:54:04.943Z,9.33
2018-08-27T10:56:36.229Z,10.20
2018-08-27T10:59:06.069Z,9.83
2018-08-27T11:01:35.931Z,10.40
2018-08-27T11:04:06.226Z,10.10
2018-08-27T11:06:35.371Z,9.80
2018-08-27T11:09:05.421Z,10.30
2018-08-27T11:11:34.535Z,10.40
2018-08-27T11:14:03.400Z,11.87
2018-08-27T11:16:32.528Z,9.93
2018-08-27T11:19:02.228Z,9.87
2018-08-27T11:21:32.078Z,11.07
2018-08-27T11:24:06.571Z,9.93
2018-08-27T11:26:40.486Z,10.57
2018-08-27T11:29:10.669Z,9.87
2018-08-27T11:31:39.961Z,9.53
2018-08-27T11:34:09.469Z,9.70
2018-08-27T11:36:38.189Z,9.93
2018-08-27T11:39:09.116Z,10.17
2018-08-27T11:41:38.476Z,10.00
2018-08-27T11:44:07.653Z,9.87
2018-08-27T11:46:37.132Z,10.80
2018-08-27T11:49:07.033Z,9.33
2018-08-27T11:51:37.001Z,9.20
2018-08-27T11:54:06.704Z,9.00
2018-08-27T11:56:37.498Z,9.53
2018-08-27T11:59:07.491Z,9.23
2018-08-27T12:01:43.416Z,8.53
2018-08-27T12:04:14.043Z,8.60
2018-08-27T12:06:43.480Z,8.37
2018-08-27T12:09:14.430Z,8.47
2018-08-27T12:11:43.946Z,8.93
2018-08-27T12:14:12.716Z,8.53
2018-08-27T12:16:42.297Z,8.40
2018-08-27T12:19:11.214Z,8.93
2018-08-27T12:21:40.787Z,8.40
2018-08-27T12:24:09.923Z,8.53
2018-08-27T12:26:38.992Z,9.27
2018-08-27T12:29:09.341Z,8.80
2018-08-27T12:31:38.353Z,8.40
2018-08-27T12:34:08.174Z,8.53
2018-08-27T12:36:36.913Z,8.50
2018-08-27T12:39:08.124Z,8.83
2018-08-27T12:41:37.218Z,8.63
2018-08-27T12:44:05.995Z,8.50
2018-08-27T12:46:37.998Z,8.53
2018-08-27T12:49:07.869Z,8.90
2018-08-27T12:51:37.396Z,8.40
2018-08-27T12:54:07.068Z,8.73
2018-08-27T12:56:38.992Z,8.40
2018-08-27T12:59:08.519Z,8.70
2018-08-27T13:01:37.353Z,8.80
2018-08-27T13:04:08.704Z,8.67
2018-08-27T13:06:38.066Z,9.00
2018-08-27T13:09:09.525Z,9.10
2018-08-27T13:11:38.949Z,8.73
2018-08-27T13:14:07.829Z,8.83
2018-08-27T13:16:37.026Z,8.80
2018-08-27T13:19:06.350Z,8.50
2018-08-27T13:21:36.171Z,8.67
2018-08-27T13:24:05.584Z,8.50
2018-08-27T13:26:35.210Z,8.60
2018-08-27T13:29:05.205Z,8.70
2018-08-27T13:31:35.094Z,8.57
2018-08-27T13:34:05.812Z,8.70
2018-08-27T13:36:35.934Z,8.50
2018-08-27T13:39:06.602Z,8.87
2018-08-27T13:41:35.922Z,8.13
2018-08-27T13:44:06.956Z,8.37
2018-08-27T13:46:37.498Z,8.40
2018-08-27T13:49:06.888Z,8.73
2018-08-27T13:51:42.061Z,8.73
2018-08-27T13:54:12.788Z,8.40
2018-08-27T13:56:42.470Z,8.30
2018-08-27T13:59:11.781Z,8.53
2018-08-27T14:01:40.732Z,8.27
2018-08-27T14:04:09.513Z,8.37
2018-08-27T14:06:38.543Z,8.63
2018-08-27T14:09:08.495Z,8.60
2018-08-27T14:11:38.631Z,8.40
2018-08-27T14:14:07.866Z,8.80
2018-08-27T14:16:36.880Z,8.50
2018-08-27T14:19:06.134Z,9.43
2018-08-27T14:21:34.935Z,8.70
2018-08-27T14:24:03.846Z,8.60
2018-08-27T14:26:32.612Z,8.40
2018-08-27T14:29:01.871Z,8.40
2018-08-27T14:31:33.438Z,8.90
2018-08-27T14:34:03.120Z,9.17
2018-08-27T14:36:33.638Z,8.93
2018-08-27T14:39:03.043Z,8.60
2018-08-27T14:41:32.360Z,8.93
2018-08-27T14:44:01.845Z,8.83
2018-08-27T14:46:31.095Z,8.40
2018-08-27T14:49:00.060Z,9.03
2018-08-27T14:51:29.460Z,8.63
2018-08-27T14:53:58.302Z,8.77
2018-08-27T14:56:28.037Z,7.90
2018-08-27T14:58:58.300Z,8.67
2018-08-27T15:01:27.515Z,8.13
2018-08-27T15:03:57.431Z,8.70
2018-08-27T15:06:26.883Z,8.20
2018-08-27T15:08:56.008Z,8.63
2018-08-27T15:11:25.496Z,8.77
2018-08-27T15:13:54.968Z,8.27
2018-08-27T15:16:23.705Z,9.00
2018-08-27T15:18:52.658Z,8.70
2018-08-27T15:21:21.537Z,8.80
2018-08-27T15:23:50.456Z,8.70
2018-08-27T15:26:20.676Z,9.27
2018-08-27T15:28:50.716Z,8.83
2018-08-27T15:31:21.321Z,9.13
2018-08-27T15:33:51.226Z,9.23
2018-08-27T15:36:20.951Z,9.10
2018-08-27T15:38:50.298Z,9.83
2018-08-27T15:41:20.806Z,8.93
2018-08-27T15:43:50.626Z,8.60
2018-08-27T15:46:25.664Z,8.43
2018-08-27T15:48:55.904Z,9.20
2018-08-27T15:51:25.572Z,8.40
2018-08-27T15:53:55.528Z,9.20
2018-08-27T15:56:25.431Z,8.40
2018-08-27T15:58:55.165Z,9.00
2018-08-27T16:01:25.127Z,8.60
2018-08-27T16:03:54.397Z,8.00
2018-08-27T16:06:25.437Z,8.80
2018-08-27T16:08:57.164Z,8.90
2018-08-27T16:11:26.600Z,8.73
2018-08-27T16:13:56.181Z,8.67
2018-08-27T16:16:25.342Z,8.27
2018-08-27T16:18:55.268Z,8.93
2018-08-27T16:21:24.486Z,9.03
2018-08-27T16:23:54.515Z,8.30
2018-08-27T16:26:24.520Z,8.77
2018-08-27T16:28:54.340Z,8.87
2018-08-27T16:31:24.115Z,9.67
2018-08-27T16:33:53.921Z,8.57
2018-08-27T16:36:24.805Z,9.70
2018-08-27T16:38:54.975Z,8.80
2018-08-27T16:41:25.124Z,9.30
2018-08-27T16:43:55.077Z,8.10
2018-08-27T16:46:25.338Z,8.93
2018-08-27T16:48:55.504Z,9.30
2018-08-27T16:51:26.361Z,8.70
2018-08-27T16:53:56.384Z,8.87
2018-08-27T16:56:26.410Z,8.70
2018-08-27T16:58:58.435Z,8.90
2018-08-27T17:01:28.962Z,8.70
2018-08-27T17:03:59.626Z,8.60
2018-08-27T17:06:29.486Z,8.40
2018-08-27T17:08:58.987Z,8.80
2018-08-27T17:11:30.614Z,9.03
2018-08-27T17:14:01.521Z,9.57
2018-08-27T17:16:32.533Z,9.70
2018-08-27T17:19:03.689Z,9.20
2018-08-27T17:21:32.379Z,9.40
2018-08-27T17:24:01.149Z,9.73
2018-08-27T17:26:30.046Z,9.70
2018-08-27T17:28:59.277Z,8.80
2018-08-27T17:31:28.258Z,8.73
2018-08-27T17:33:57.174Z,8.40
2018-08-27T17:36:26.400Z,9.63
2018-08-27T17:38:56.389Z,9.10
2018-08-27T17:41:26.324Z,9.03
2018-08-27T17:43:55.819Z,9.10
2018-08-27T17:46:25.065Z,10.20
2018-08-27T17:48:54.137Z,9.00
2018-08-27T17:51:23.632Z,9.47
2018-08-27T17:53:53.056Z,8.50
2018-08-27T17:56:24.080Z,10.20
2018-08-27T17:58:53.878Z,10.03
2018-08-27T18:01:23.979Z,9.80
2018-08-27T18:03:52.786Z,10.53
2018-08-27T18:06:22.573Z,10.63
2018-08-27T18:08:51.758Z,11.50
2018-08-27T18:11:20.915Z,10.83
2018-08-27T18:13:49.625Z,11.00
2018-08-27T18:16:18.876Z,11.40
2018-08-27T18:18:49.478Z,11.07
2018-08-27T18:21:20.052Z,11.17
2018-08-27T18:23:49.030Z,11.63
2018-08-27T18:26:18.134Z,11.70
2018-08-27T18:28:47.886Z,10.90
2018-08-27T18:31:18.377Z,11.83
2018-08-27T18:33:48.596Z,11.37
2018-08-27T18:36:18.815Z,11.93
2018-08-27T18:38:49.253Z,12.07
2018-08-27T18:41:19.252Z,11.60
2018-08-27T18:43:49.080Z,11.73
2018-08-27T18:46:18.791Z,11.50
2018-08-27T18:48:49.052Z,11.87
2018-08-27T18:51:18.637Z,12.30
2018-08-27T18:53:48.887Z,13.03
2018-08-27T18:56:17.740Z,11.90
2018-08-27T18:58:47.381Z,12.37
2018-08-27T19:01:17.460Z,12.10
2018-08-27T19:03:46.544Z,12.17
2018-08-27T19:06:15.989Z,12.33
2018-08-27T19:08:46.774Z,12.00
2018-08-27T19:11:16.515Z,13.13
2018-08-27T19:13:46.869Z,12.10
2018-08-27T19:16:15.875Z,11.50
2018-08-27T19:18:46.555Z,12.63
2018-08-27T19:21:16.840Z,11.90
2018-08-27T19:23:46.672Z,11.90
2018-08-27T19:26:17.260Z,13.07
2018-08-27T19:28:46.496Z,12.13
2018-08-27T19:31:16.477Z,11.93
2018-08-27T19:33:47.099Z,12.77
2018-08-27T19:36:16.114Z,11.70
2018-08-27T19:38:46.925Z,13.00
2018-08-27T19:41:17.642Z,11.90
2018-08-27T19:43:48.001Z,12.70
2018-08-27T19:46:17.090Z,12.77
2018-08-27T19:48:46.321Z,12.07
2018-08-27T19:51:16.417Z,12.73
2018-08-27T19:53:46.101Z,11.70
2018-08-27T19:56:16.735Z,12.47
2018-08-27T19:58:45.782Z,12.50
2018-08-27T20:01:14.742Z,13.50
2018-08-27T20:03:45.278Z,12.10
2018-08-27T20:06:17.350Z,12.50
2018-08-27T20:08:46.523Z,11.83
2018-08-27T20:11:15.349Z,12.20
2018-08-27T20:13:45.265Z,12.17
2018-08-27T20:16:15.531Z,12.83
2018-08-27T20:18:45.293Z,12.00
2018-08-27T20:21:15.670Z,11.83
2018-08-27T20:23:45.439Z,12.10
2018-08-27T20:26:14.606Z,12.50
2018-08-27T20:28:43.990Z,13.50
2018-08-27T20:31:15.508Z,13.13
2018-08-27T20:33:45.246Z,12.77
2018-08-27T20:36:15.069Z,12.47
2018-08-27T20:38:45.347Z,12.30
2018-08-27T20:41:14.980Z,12.40
2018-08-27T20:43:44.671Z,12.60
2018-08-27T20:46:14.666Z,12.40
2018-08-27T20:48:44.591Z,14.40
2018-08-27T20:51:13.349Z,12.40
2018-08-27T20:53:43.573Z,12.13
2018-08-27T20:56:12.691Z,13.40
2018-08-27T20:58:44.875Z,20.90
2018-08-27T21:01:15.116Z,13.27
2018-08-27T21:03:44.936Z,12.70
2018-08-27T21:06:14.994Z,12.43
2018-08-27T21:08:47.941Z,13.33
2018-08-27T21:11:18.100Z,12.30
2018-08-27T21:13:49.538Z,12.77
2018-08-27T21:16:21.124Z,12.67
2018-08-27T21:18:51.014Z,12.43
2018-08-27T21:21:19.887Z,12.40
2018-08-27T21:23:49.501Z,12.50
2018-08-27T21:26:19.556Z,12.40
2018-08-27T21:28:50.086Z,12.20
2018-08-27T21:31:20.142Z,12.10
2018-08-27T21:33:49.810Z,12.70
2018-08-27T21:36:20.242Z,12.60
2018-08-27T21:38:51.365Z,11.77
2018-08-27T21:41:22.101Z,12.80
2018-08-27T21:43:52.027Z,12.00
2018-08-27T21:46:25.182Z,12.57
2018-08-27T21:49:02.240Z,11.80
2018-08-27T21:51:33.484Z,12.33
2018-08-27T21:54:04.225Z,12.50
2018-08-27T21:56:35.664Z,11.73
2018-08-27T21:59:09.871Z,12.30
2018-08-27T22:01:39.972Z,11.10
2018-08-27T22:10:05.738Z,11.53
2018-08-27T22:12:41.086Z,11.10
2018-08-27T22:15:10.221Z,12.00
2018-08-27T22:17:40.198Z,11.10
2018-08-27T22:20:10.910Z,12.10
2018-08-27T22:22:41.682Z,12.40
2018-08-27T22:25:15.250Z,12.40
2018-08-27T22:27:46.868Z,11.73
2018-08-27T22:30:17.367Z,12.37
2018-08-27T22:32:48.386Z,12.13
2018-08-27T22:35:17.499Z,11.97
2018-08-27T22:37:48.203Z,11.80
2018-08-27T22:40:17.626Z,11.70
2018-08-27T22:42:47.686Z,12.20
2018-08-27T22:45:18.159Z,11.90
2018-08-27T22:47:47.039Z,11.70
2018-08-27T22:50:17.729Z,12.20
2018-08-27T22:52:47.936Z,11.27
2018-08-27T22:55:18.053Z,14.20
2018-08-27T22:57:48.050Z,12.50
2018-08-27T23:00:23.412Z,12.13
2018-08-27T23:02:57.818Z,11.73
2018-08-27T23:05:27.343Z,12.00
2018-08-27T23:07:56.812Z,11.27
2018-08-27T23:10:26.856Z,12.07
2018-08-27T23:12:56.048Z,12.17
2018-08-27T23:15:26.098Z,12.73
2018-08-27T23:17:55.264Z,12.43
2018-08-27T23:20:24.885Z,11.40
2018-08-27T23:22:54.672Z,12.40
2018-08-27T23:25:24.732Z,12.27
2018-08-27T23:27:54.368Z,10.97
2018-08-27T23:30:23.595Z,12.00
2018-08-27T23:32:52.380Z,11.43
2018-08-27T23:35:22.289Z,11.67
2018-08-27T23:37:52.091Z,11.40
2018-08-27T23:40:21.539Z,11.93
2018-08-27T23:42:51.048Z,12.27
2018-08-27T23:45:20.664Z,11.97
2018-08-27T23:47:50.282Z,11.60
2018-08-27T23:50:20.241Z,11.60
2018-08-27T23:52:50.120Z,11.97
2018-08-27T23:55:19.239Z,11.93
2018-08-27T23:57:49.555Z,11.30
